sensor_id;sensor_type;location;lat;lon;timestamp;pressure;altitude;pressure_sealevel;temperature;humidity
75759;BME280;64371;47.566;19.086;2023-02-04T00:01:56;100087.34;;;3.88;78.87
75759;BME280;64371;47.566;19.086;2023-02-04T00:05:03;100092.09;;;3.91;78.23
75759;BME280;64371;47.566;19.086;2023-02-04T00:08:05;100087.50;;;3.98;78.42
75759;BME280;64371;47.566;19.086;2023-02-04T00:11:12;100088.50;;;3.97;77.82
75759;BME280;64371;47.566;19.086;2023-02-04T00:14:22;100091.50;;;4.06;77.86
75759;BME280;64371;47.566;19.086;2023-02-04T00:17:31;100097.25;;;4.08;77.81
75759;BME280;64371;47.566;19.086;2023-02-04T00:20:37;100086.41;;;3.94;78.50
75759;BME280;64371;47.566;19.086;2023-02-04T00:23:40;100103.69;;;4.00;77.96
75759;BME280;64371;47.566;19.086;2023-02-04T00:30:19;100101.19;;;3.89;78.65
75759;BME280;64371;47.566;19.086;2023-02-04T00:33:25;100097.00;;;3.88;78.48
75759;BME280;64371;47.566;19.086;2023-02-04T00:36:33;100092.91;;;3.92;78.45
75759;BME280;64371;47.566;19.086;2023-02-04T00:39:53;100085.19;;;4.02;78.03
75759;BME280;64371;47.566;19.086;2023-02-04T00:43:07;100070.31;;;4.02;78.03
75759;BME280;64371;47.566;19.086;2023-02-04T00:46:15;100054.13;;;4.00;78.24
75759;BME280;64371;47.566;19.086;2023-02-04T00:49:23;100049.78;;;4.06;78.04
75759;BME280;64371;47.566;19.086;2023-02-04T00:52:30;100030.66;;;4.22;77.82
75759;BME280;64371;47.566;19.086;2023-02-04T00:55:32;100040.28;;;4.22;77.82
75759;BME280;64371;47.566;19.086;2023-02-04T00:58:39;100027.56;;;4.25;77.54
75759;BME280;64371;47.566;19.086;2023-02-04T01:01:53;100026.06;;;4.34;77.18
75759;BME280;64371;47.566;19.086;2023-02-04T01:05:05;100036.28;;;4.36;77.20
75759;BME280;64371;47.566;19.086;2023-02-04T01:08:16;100029.16;;;4.31;77.43
75759;BME280;64371;47.566;19.086;2023-02-04T01:11:29;100028.69;;;4.34;77.46
75759;BME280;64371;47.566;19.086;2023-02-04T01:14:35;100022.66;;;4.34;77.50
75759;BME280;64371;47.566;19.086;2023-02-04T01:17:42;100022.97;;;4.37;76.77
75759;BME280;64371;47.566;19.086;2023-02-04T01:20:44;100018.84;;;4.41;76.46
75759;BME280;64371;47.566;19.086;2023-02-04T01:23:50;100033.22;;;4.44;76.97
75759;BME280;64371;47.566;19.086;2023-02-04T01:26:55;100031.09;;;4.41;77.20
75759;BME280;64371;47.566;19.086;2023-02-04T01:30:04;100026.97;;;4.45;76.43
75759;BME280;64371;47.566;19.086;2023-02-04T01:33:10;100013.88;;;4.40;76.75
75759;BME280;64371;47.566;19.086;2023-02-04T01:36:21;100013.50;;;4.53;75.88
75759;BME280;64371;47.566;19.086;2023-02-04T01:39:29;100002.78;;;4.54;75.87
75759;BME280;64371;47.566;19.086;2023-02-04T01:42:35;100006.53;;;4.63;75.52
75759;BME280;64371;47.566;19.086;2023-02-04T01:45:41;100004.75;;;4.69;75.07
75759;BME280;64371;47.566;19.086;2023-02-04T01:48:53;99994.53;;;4.67;75.23
75759;BME280;64371;47.566;19.086;2023-02-04T01:51:56;99997.72;;;4.69;74.75
75759;BME280;64371;47.566;19.086;2023-02-04T01:54:59;99995.34;;;4.68;75.23
75759;BME280;64371;47.566;19.086;2023-02-04T01:58:01;99999.28;;;4.70;74.95
75759;BME280;64371;47.566;19.086;2023-02-04T02:04:38;99987.50;;;4.68;74.93
75759;BME280;64371;47.566;19.086;2023-02-04T02:07:48;99987.81;;;4.72;74.94
75759;BME280;64371;47.566;19.086;2023-02-04T02:10:59;100003.13;;;4.63;75.53
75759;BME280;64371;47.566;19.086;2023-02-04T02:14:04;99988.50;;;4.62;75.55
75759;BME280;64371;47.566;19.086;2023-02-04T02:17:06;99989.31;;;4.62;75.51
75759;BME280;64371;47.566;19.086;2023-02-04T02:20:21;100012.97;;;4.56;75.69
75759;BME280;64371;47.566;19.086;2023-02-04T02:23:50;100003.13;;;4.63;75.21
75759;BME280;64371;47.566;19.086;2023-02-04T02:27:02;99990.63;;;4.70;74.95
75759;BME280;64371;47.566;19.086;2023-02-04T02:30:11;100000.22;;;4.59;75.47
75759;BME280;64371;47.566;19.086;2023-02-04T02:33:22;100009.28;;;4.52;75.46
75759;BME280;64371;47.566;19.086;2023-02-04T02:36:32;99995.94;;;4.48;76.05
75759;BME280;64371;47.566;19.086;2023-02-04T02:39:49;100004.06;;;4.52;75.82
75759;BME280;64371;47.566;19.086;2023-02-04T02:42:58;99985.44;;;4.43;76.42
75759;BME280;64371;47.566;19.086;2023-02-04T02:46:03;99972.25;;;4.55;75.93
75759;BME280;64371;47.566;19.086;2023-02-04T02:49:14;99981.91;;;4.54;75.90
75759;BME280;64371;47.566;19.086;2023-02-04T02:52:24;99955.91;;;4.64;75.35
75759;BME280;64371;47.566;19.086;2023-02-04T02:55:40;99942.94;;;4.75;75.32
75759;BME280;64371;47.566;19.086;2023-02-04T02:58:52;99960.16;;;4.76;74.83
75759;BME280;64371;47.566;19.086;2023-02-04T03:02:00;99962.47;;;4.72;75.58
75759;BME280;64371;47.566;19.086;2023-02-04T03:05:06;99985.41;;;4.70;75.46
75759;BME280;64371;47.566;19.086;2023-02-04T03:08:13;99973.13;;;4.65;76.24
75759;BME280;64371;47.566;19.086;2023-02-04T03:11:20;99990.06;;;4.63;76.51
75759;BME280;64371;47.566;19.086;2023-02-04T03:14:27;99987.66;;;4.56;77.49
75759;BME280;64371;47.566;19.086;2023-02-04T03:17:38;99970.19;;;4.57;77.43
75759;BME280;64371;47.566;19.086;2023-02-04T03:20:41;99970.41;;;4.55;78.56
75759;BME280;64371;47.566;19.086;2023-02-04T03:23:52;99957.34;;;4.50;78.20
75759;BME280;64371;47.566;19.086;2023-02-04T03:27:09;99979.56;;;4.53;78.53
75759;BME280;64371;47.566;19.086;2023-02-04T03:30:26;99972.53;;;4.58;78.62
75759;BME280;64371;47.566;19.086;2023-02-04T03:33:37;99973.28;;;4.54;78.88
75759;BME280;64371;47.566;19.086;2023-02-04T03:36:47;99968.81;;;4.49;79.31
75759;BME280;64371;47.566;19.086;2023-02-04T03:39:53;99964.22;;;4.61;78.15
75759;BME280;64371;47.566;19.086;2023-02-04T03:43:03;99954.53;;;4.57;79.07
75759;BME280;64371;47.566;19.086;2023-02-04T03:46:08;99955.81;;;4.54;79.25
75759;BME280;64371;47.566;19.086;2023-02-04T03:49:16;99952.44;;;4.59;79.54
75759;BME280;64371;47.566;19.086;2023-02-04T03:52:18;99955.00;;;4.54;79.61
75759;BME280;64371;47.566;19.086;2023-02-04T03:55:30;99956.09;;;4.58;79.58
75759;BME280;64371;47.566;19.086;2023-02-04T03:58:38;99954.03;;;4.60;79.31
75759;BME280;64371;47.566;19.086;2023-02-04T04:01:48;99965.75;;;4.57;79.45
75759;BME280;64371;47.566;19.086;2023-02-04T04:04:57;99971.47;;;4.54;80.02
75759;BME280;64371;47.566;19.086;2023-02-04T04:08:05;99983.72;;;4.54;80.35
75759;BME280;64371;47.566;19.086;2023-02-04T04:11:07;99972.75;;;4.52;80.75
75759;BME280;64371;47.566;19.086;2023-02-04T04:14:15;99980.13;;;4.60;79.56
75759;BME280;64371;47.566;19.086;2023-02-04T04:17:19;99975.41;;;4.57;79.98
75759;BME280;64371;47.566;19.086;2023-02-04T04:20:24;99965.81;;;4.62;79.42
75759;BME280;64371;47.566;19.086;2023-02-04T04:23:28;99964.25;;;4.66;79.00
75759;BME280;64371;47.566;19.086;2023-02-04T04:26:32;99971.31;;;4.66;79.44
75759;BME280;64371;47.566;19.086;2023-02-04T04:29:37;99964.00;;;4.68;78.84
75759;BME280;64371;47.566;19.086;2023-02-04T04:32:46;99946.78;;;4.67;78.57
75759;BME280;64371;47.566;19.086;2023-02-04T04:35:51;99967.16;;;4.70;79.21
75759;BME280;64371;47.566;19.086;2023-02-04T04:39:16;99959.31;;;4.70;77.67
75759;BME280;64371;47.566;19.086;2023-02-04T04:42:18;99958.59;;;4.80;77.04
75759;BME280;64371;47.566;19.086;2023-02-04T04:45:23;99951.88;;;4.84;76.05
75759;BME280;64371;47.566;19.086;2023-02-04T04:48:30;99946.91;;;4.87;76.04
75759;BME280;64371;47.566;19.086;2023-02-04T04:51:37;99953.19;;;4.86;75.78
75759;BME280;64371;47.566;19.086;2023-02-04T04:54:39;99943.41;;;4.72;76.72
75759;BME280;64371;47.566;19.086;2023-02-04T04:57:45;99963.56;;;4.76;76.85
75759;BME280;64371;47.566;19.086;2023-02-04T05:00:53;99935.09;;;4.80;75.86
75759;BME280;64371;47.566;19.086;2023-02-04T05:03:55;99945.09;;;4.88;75.63
75759;BME280;64371;47.566;19.086;2023-02-04T05:07:03;99950.28;;;4.83;75.62
75759;BME280;64371;47.566;19.086;2023-02-04T05:10:16;99936.69;;;4.81;75.93
75759;BME280;64371;47.566;19.086;2023-02-04T05:13:20;99934.34;;;4.79;76.11
75759;BME280;64371;47.566;19.086;2023-02-04T05:16:25;99941.06;;;4.75;76.40
75759;BME280;64371;47.566;19.086;2023-02-04T05:19:31;99935.50;;;4.61;77.32
75759;BME280;64371;47.566;19.086;2023-02-04T05:22:46;99930.50;;;4.55;77.08
75759;BME280;64371;47.566;19.086;2023-02-04T05:25:49;99928.22;;;4.63;76.74
75759;BME280;64371;47.566;19.086;2023-02-04T05:29:02;99909.69;;;4.65;76.71
75759;BME280;64371;47.566;19.086;2023-02-04T05:32:10;99926.13;;;4.65;76.79
75759;BME280;64371;47.566;19.086;2023-02-04T05:35:16;99925.31;;;4.60;78.08
75759;BME280;64371;47.566;19.086;2023-02-04T05:38:27;99922.09;;;4.48;78.12
75759;BME280;64371;47.566;19.086;2023-02-04T05:41:36;99908.81;;;4.54;77.32
75759;BME280;64371;47.566;19.086;2023-02-04T05:44:43;99915.38;;;4.57;77.88
75759;BME280;64371;47.566;19.086;2023-02-04T05:48:08;99943.00;;;4.53;78.04
75759;BME280;64371;47.566;19.086;2023-02-04T05:51:12;99931.66;;;4.37;77.90
75759;BME280;64371;47.566;19.086;2023-02-04T05:54:16;99945.63;;;4.58;76.66
75759;BME280;64371;47.566;19.086;2023-02-04T05:57:26;99962.59;;;4.55;76.22
75759;BME280;64371;47.566;19.086;2023-02-04T06:00:32;99954.44;;;4.47;76.16
75759;BME280;64371;47.566;19.086;2023-02-04T06:03:38;99965.84;;;4.41;73.97
75759;BME280;64371;47.566;19.086;2023-02-04T06:06:57;99980.38;;;4.32;74.15
75759;BME280;64371;47.566;19.086;2023-02-04T06:10:01;99991.88;;;4.31;72.83
75759;BME280;64371;47.566;19.086;2023-02-04T06:13:07;100013.28;;;4.33;72.30
75759;BME280;64371;47.566;19.086;2023-02-04T06:16:21;99995.75;;;4.28;71.78
75759;BME280;64371;47.566;19.086;2023-02-04T06:19:29;100038.25;;;4.24;71.63
75759;BME280;64371;47.566;19.086;2023-02-04T06:22:40;100026.34;;;4.11;72.35
75759;BME280;64371;47.566;19.086;2023-02-04T06:25:50;100042.06;;;3.94;73.00
75759;BME280;64371;47.566;19.086;2023-02-04T06:28:59;100037.59;;;3.90;72.83
75759;BME280;64371;47.566;19.086;2023-02-04T06:32:04;100048.91;;;3.79;72.95
75759;BME280;64371;47.566;19.086;2023-02-04T06:35:36;100057.75;;;3.78;72.67
75759;BME280;64371;47.566;19.086;2023-02-04T06:38:45;100064.63;;;3.84;72.05
75759;BME280;64371;47.566;19.086;2023-02-04T06:42:00;100065.09;;;3.81;nan
75759;BME280;64371;47.566;19.086;2023-02-04T06:45:06;100048.28;;;3.72;71.49
75759;BME280;64371;47.566;19.086;2023-02-04T06:48:10;100072.06;;;3.75;71.58
75759;BME280;64371;47.566;19.086;2023-02-04T06:51:18;100076.44;;;3.70;71.54
75759;BME280;64371;47.566;19.086;2023-02-04T06:54:23;100072.47;;;3.67;72.67
75759;BME280;64371;47.566;19.086;2023-02-04T06:57:25;100069.69;;;3.74;70.84
75759;BME280;64371;47.566;19.086;2023-02-04T07:00:36;100068.16;;;3.78;70.29
75759;BME280;64371;47.566;19.086;2023-02-04T07:03:40;100087.72;;;3.75;69.47
75759;BME280;64371;47.566;19.086;2023-02-04T07:06:48;100098.16;;;3.75;69.76
75759;BME280;64371;47.566;19.086;2023-02-04T07:10:11;100098.84;;;3.71;69.79
75759;BME280;64371;47.566;19.086;2023-02-04T07:13:21;100109.19;;;3.66;69.04
75759;BME280;64371;47.566;19.086;2023-02-04T07:16:24;100120.91;;;3.63;69.23
75759;BME280;64371;47.566;19.086;2023-02-04T07:19:26;100107.22;;;3.56;69.36
75759;BME280;64371;47.566;19.086;2023-02-04T07:22:31;100104.06;;;3.54;68.39
75759;BME280;64371;47.566;19.086;2023-02-04T07:25:42;100125.72;;;3.38;68.16
75759;BME280;64371;47.566;19.086;2023-02-04T07:28:45;100139.47;;;3.33;68.09
75759;BME280;64371;47.566;19.086;2023-02-04T07:31:55;100119.25;;;3.24;67.96
75759;BME280;64371;47.566;19.086;2023-02-04T07:34:58;100116.66;;;3.24;67.21
75759;BME280;64371;47.566;19.086;2023-02-04T07:38:11;100136.22;;;3.26;67.10
75759;BME280;64371;47.566;19.086;2023-02-04T07:41:16;100140.41;;;3.27;66.82
75759;BME280;64371;47.566;19.086;2023-02-04T07:44:21;100136.06;;;3.33;66.21
75759;BME280;64371;47.566;19.086;2023-02-04T07:47:23;100144.50;;;3.40;66.01
75759;BME280;64371;47.566;19.086;2023-02-04T07:50:41;100147.91;;;3.57;65.22
75759;BME280;64371;47.566;19.086;2023-02-04T07:53:57;100163.16;;;4.20;62.99
75759;BME280;64371;47.566;19.086;2023-02-04T07:56:59;100153.31;;;4.70;60.64
75759;BME280;64371;47.566;19.086;2023-02-04T08:00:05;100150.03;;;4.80;60.28
75759;BME280;64371;47.566;19.086;2023-02-04T08:03:17;100161.47;;;5.01;59.95
75759;BME280;64371;47.566;19.086;2023-02-04T08:06:29;100184.78;;;4.37;61.05
75759;BME280;64371;47.566;19.086;2023-02-04T08:09:36;100184.09;;;4.68;60.49
75759;BME280;64371;47.566;19.086;2023-02-04T08:12:44;100185.69;;;4.69;59.79
75759;BME280;64371;47.566;19.086;2023-02-04T08:15:59;100204.78;;;4.97;59.28
75759;BME280;64371;47.566;19.086;2023-02-04T08:19:09;100221.88;;;4.61;60.35
75759;BME280;64371;47.566;19.086;2023-02-04T08:22:11;100213.31;;;4.65;59.57
75759;BME280;64371;47.566;19.086;2023-02-04T08:25:29;100243.22;;;4.80;60.30
75759;BME280;64371;47.566;19.086;2023-02-04T08:28:32;100218.78;;;4.64;58.91
75759;BME280;64371;47.566;19.086;2023-02-04T08:31:43;100259.88;;;4.52;59.94
75759;BME280;64371;47.566;19.086;2023-02-04T08:34:49;100285.56;;;4.60;59.44
75759;BME280;64371;47.566;19.086;2023-02-04T08:37:54;100275.34;;;4.03;60.58
75759;BME280;64371;47.566;19.086;2023-02-04T08:40:57;100298.63;;;3.77;60.90
75759;BME280;64371;47.566;19.086;2023-02-04T08:44:01;100269.06;;;3.55;61.39
75759;BME280;64371;47.566;19.086;2023-02-04T08:47:16;100300.91;;;3.73;61.22
75759;BME280;64371;47.566;19.086;2023-02-04T08:50:25;100315.25;;;4.21;60.54
75759;BME280;64371;47.566;19.086;2023-02-04T08:53:33;100331.78;;;4.43;59.37
75759;BME280;64371;47.566;19.086;2023-02-04T08:56:46;100330.91;;;4.37;58.83
75759;BME280;64371;47.566;19.086;2023-02-04T08:59:56;100354.16;;;4.39;58.26
75759;BME280;64371;47.566;19.086;2023-02-04T09:03:01;100346.69;;;3.97;59.18
75759;BME280;64371;47.566;19.086;2023-02-04T09:06:06;100361.59;;;4.47;58.03
75759;BME280;64371;47.566;19.086;2023-02-04T09:09:16;100373.69;;;4.69;57.32
75759;BME280;64371;47.566;19.086;2023-02-04T09:12:23;100385.59;;;4.99;57.44
75759;BME280;64371;47.566;19.086;2023-02-04T09:15:29;100384.84;;;4.65;55.28
75759;BME280;64371;47.566;19.086;2023-02-04T09:18:36;100386.00;;;4.91;55.03
75759;BME280;64371;47.566;19.086;2023-02-04T09:21:44;100398.25;;;5.28;54.03
75759;BME280;64371;47.566;19.086;2023-02-04T09:24:49;100412.28;;;5.22;53.91
75759;BME280;64371;47.566;19.086;2023-02-04T09:27:54;100422.28;;;5.47;53.08
75759;BME280;64371;47.566;19.086;2023-02-04T09:31:11;100421.91;;;5.38;53.01
75759;BME280;64371;47.566;19.086;2023-02-04T09:34:13;100446.50;;;5.43;53.72
75759;BME280;64371;47.566;19.086;2023-02-04T09:37:30;100463.94;;;5.54;52.55
75759;BME280;64371;47.566;19.086;2023-02-04T09:40:40;100471.81;;;4.99;52.24
75759;BME280;64371;47.566;19.086;2023-02-04T09:43:50;100479.22;;;4.57;53.10
75759;BME280;64371;47.566;19.086;2023-02-04T09:46:56;100522.06;;;4.44;53.29
75759;BME280;64371;47.566;19.086;2023-02-04T09:49:59;100521.44;;;4.37;53.33
75759;BME280;64371;47.566;19.086;2023-02-04T09:53:10;100557.03;;;4.43;53.55
75759;BME280;64371;47.566;19.086;2023-02-04T09:56:19;100573.47;;;4.44;53.91
75759;BME280;64371;47.566;19.086;2023-02-04T09:59:28;100579.50;;;4.44;53.46
75759;BME280;64371;47.566;19.086;2023-02-04T10:02:34;100583.06;;;4.38;52.95
75759;BME280;64371;47.566;19.086;2023-02-04T10:05:37;100593.91;;;4.47;52.79
75759;BME280;64371;47.566;19.086;2023-02-04T10:08:41;100613.06;;;4.52;52.79
75759;BME280;64371;47.566;19.086;2023-02-04T10:11:52;100610.91;;;4.49;51.50
75759;BME280;64371;47.566;19.086;2023-02-04T10:14:54;100622.84;;;4.45;51.24
75759;BME280;64371;47.566;19.086;2023-02-04T10:18:04;100642.00;;;4.51;51.22
75759;BME280;64371;47.566;19.086;2023-02-04T10:21:27;100629.84;;;4.56;49.95
75759;BME280;64371;47.566;19.086;2023-02-04T10:24:29;100655.13;;;4.67;50.25
75759;BME280;64371;47.566;19.086;2023-02-04T10:27:52;100658.66;;;4.90;50.66
75759;BME280;64371;47.566;19.086;2023-02-04T10:30:57;100661.19;;;4.85;49.92
75759;BME280;64371;47.566;19.086;2023-02-04T10:34:17;100642.06;;;4.96;48.27
75759;BME280;64371;47.566;19.086;2023-02-04T10:37:21;100666.41;;;5.13;48.66
75759;BME280;64371;47.566;19.086;2023-02-04T10:40:29;100669.84;;;5.63;47.53
75759;BME280;64371;47.566;19.086;2023-02-04T10:43:36;100681.97;;;5.53;47.86
75759;BME280;64371;47.566;19.086;2023-02-04T10:46:39;100704.94;;;5.84;47.53
75759;BME280;64371;47.566;19.086;2023-02-04T10:50:14;100712.09;;;5.72;46.67
75759;BME280;64371;47.566;19.086;2023-02-04T10:53:20;100732.31;;;5.76;46.92
75759;BME280;64371;47.566;19.086;2023-02-04T11:00:27;100764.81;;;5.64;46.52
75759;BME280;64371;47.566;19.086;2023-02-04T11:03:42;100778.09;;;5.62;47.21
75759;BME280;64371;47.566;19.086;2023-02-04T11:06:53;100790.06;;;5.86;46.84
75759;BME280;64371;47.566;19.086;2023-02-04T11:10:03;100801.75;;;5.39;47.73
75759;BME280;64371;47.566;19.086;2023-02-04T11:13:21;100821.41;;;5.70;47.26
75759;BME280;64371;47.566;19.086;2023-02-04T11:16:34;100826.22;;;5.89;46.04
75759;BME280;64371;47.566;19.086;2023-02-04T11:19:50;100841.31;;;5.71;46.35
75759;BME280;64371;47.566;19.086;2023-02-04T11:23:27;100826.69;;;5.58;44.76
75759;BME280;64371;47.566;19.086;2023-02-04T11:26:38;100846.34;;;5.32;45.40
75759;BME280;64371;47.566;19.086;2023-02-04T11:29:45;100861.81;;;5.22;44.94
75759;BME280;64371;47.566;19.086;2023-02-04T11:33:19;100870.88;;;5.31;44.90
75759;BME280;64371;47.566;19.086;2023-02-04T11:36:28;100894.22;;;5.61;43.49
75759;BME280;64371;47.566;19.086;2023-02-04T11:39:37;100896.19;;;5.54;42.95
75759;BME280;64371;47.566;19.086;2023-02-04T11:42:45;100917.66;;;5.56;44.23
75759;BME280;64371;47.566;19.086;2023-02-04T11:46:15;100921.25;;;5.15;44.28
75759;BME280;64371;47.566;19.086;2023-02-04T11:49:22;100915.91;;;5.22;43.38
75759;BME280;64371;47.566;19.086;2023-02-04T11:52:37;100928.94;;;5.33;42.85
75759;BME280;64371;47.566;19.086;2023-02-04T11:55:44;100937.34;;;5.35;42.88
75759;BME280;64371;47.566;19.086;2023-02-04T11:59:00;100931.34;;;5.35;42.40
75759;BME280;64371;47.566;19.086;2023-02-04T12:02:16;100932.72;;;5.38;43.01
75759;BME280;64371;47.566;19.086;2023-02-04T12:05:45;100940.53;;;5.26;43.79
75759;BME280;64371;47.566;19.086;2023-02-04T12:08:51;100955.56;;;5.19;42.48
75759;BME280;64371;47.566;19.086;2023-02-04T12:12:02;100946.47;;;5.10;42.59
75759;BME280;64371;47.566;19.086;2023-02-04T12:15:20;100957.28;;;5.25;42.89
75759;BME280;64371;47.566;19.086;2023-02-04T12:18:34;100965.44;;;5.05;41.52
75759;BME280;64371;47.566;19.086;2023-02-04T12:21:39;100986.81;;;5.02;41.83
75759;BME280;64371;47.566;19.086;2023-02-04T12:24:47;100966.25;;;5.06;41.65
75759;BME280;64371;47.566;19.086;2023-02-04T12:27:57;100985.78;;;5.03;43.48
75759;BME280;64371;47.566;19.086;2023-02-04T12:31:07;100995.66;;;4.90;42.58
75759;BME280;64371;47.566;19.086;2023-02-04T12:34:10;100990.34;;;4.96;42.07
75759;BME280;64371;47.566;19.086;2023-02-04T12:37:22;101001.66;;;4.90;41.68
75759;BME280;64371;47.566;19.086;2023-02-04T12:40:27;101023.91;;;4.69;41.60
75759;BME280;64371;47.566;19.086;2023-02-04T12:43:43;101028.09;;;4.70;41.54
75759;BME280;64371;47.566;19.086;2023-02-04T12:46:47;101030.03;;;4.75;41.55
75759;BME280;64371;47.566;19.086;2023-02-04T12:49:57;101040.13;;;4.72;44.01
75759;BME280;64371;47.566;19.086;2023-02-04T12:53:10;101068.53;;;4.80;44.40
75759;BME280;64371;47.566;19.086;2023-02-04T12:56:17;101060.81;;;4.73;43.93
75759;BME280;64371;47.566;19.086;2023-02-04T12:59:26;101065.59;;;4.76;44.67
75759;BME280;64371;47.566;19.086;2023-02-04T13:02:30;101055.41;;;4.56;44.10
75759;BME280;64371;47.566;19.086;2023-02-04T13:05:32;101087.41;;;4.52;45.23
75759;BME280;64371;47.566;19.086;2023-02-04T13:08:45;101099.53;;;4.46;43.28
75759;BME280;64371;47.566;19.086;2023-02-04T13:11:54;101097.16;;;4.27;43.61
75759;BME280;64371;47.566;19.086;2023-02-04T13:14:59;101121.88;;;4.24;42.70
75759;BME280;64371;47.566;19.086;2023-02-04T13:18:07;101125.13;;;4.20;42.65
75759;BME280;64371;47.566;19.086;2023-02-04T13:21:09;101109.97;;;4.10;42.17
75759;BME280;64371;47.566;19.086;2023-02-04T13:24:23;101110.19;;;4.27;42.93
75759;BME280;64371;47.566;19.086;2023-02-04T13:27:28;101113.78;;;4.14;42.23
75759;BME280;64371;47.566;19.086;2023-02-04T13:30:41;101141.50;;;4.27;42.10
75759;BME280;64371;47.566;19.086;2023-02-04T13:33:50;101140.94;;;4.25;41.99
75759;BME280;64371;47.566;19.086;2023-02-04T13:36:57;101160.28;;;3.99;42.86
75759;BME280;64371;47.566;19.086;2023-02-04T13:40:05;101159.97;;;3.89;43.23
75759;BME280;64371;47.566;19.086;2023-02-04T13:43:13;101159.59;;;3.85;43.13
75759;BME280;64371;47.566;19.086;2023-02-04T13:46:18;101173.09;;;3.82;43.24
75759;BME280;64371;47.566;19.086;2023-02-04T13:49:25;101177.56;;;3.75;43.05
75759;BME280;64371;47.566;19.086;2023-02-04T13:52:31;101176.94;;;3.73;42.66
75759;BME280;64371;47.566;19.086;2023-02-04T13:55:37;101194.84;;;3.70;42.75
75759;BME280;64371;47.566;19.086;2023-02-04T13:58:40;101200.91;;;3.64;41.67
75759;BME280;64371;47.566;19.086;2023-02-04T14:01:46;101195.75;;;3.57;42.43
75759;BME280;64371;47.566;19.086;2023-02-04T14:04:49;101214.56;;;3.59;41.79
75759;BME280;64371;47.566;19.086;2023-02-04T14:08:08;101230.63;;;3.56;41.67
75759;BME280;64371;47.566;19.086;2023-02-04T14:11:18;101229.56;;;3.39;41.06
75759;BME280;64371;47.566;19.086;2023-02-04T14:14:27;101226.59;;;3.29;40.18
75759;BME280;64371;47.566;19.086;2023-02-04T14:17:40;101238.06;;;3.21;40.15
75759;BME280;64371;47.566;19.086;2023-02-04T14:20:46;101245.31;;;3.13;40.55
75759;BME280;64371;47.566;19.086;2023-02-04T14:23:53;101256.16;;;3.10;41.08
75759;BME280;64371;47.566;19.086;2023-02-04T14:26:58;101260.00;;;3.07;42.33
75759;BME280;64371;47.566;19.086;2023-02-04T14:30:06;101246.19;;;2.94;43.68
75759;BME280;64371;47.566;19.086;2023-02-04T14:33:14;101279.91;;;2.82;44.76
75759;BME280;64371;47.566;19.086;2023-02-04T14:36:26;101285.50;;;2.79;44.23
75759;BME280;64371;47.566;19.086;2023-02-04T14:39:32;101298.34;;;2.67;45.34
75759;BME280;64371;47.566;19.086;2023-02-04T14:42:34;101304.38;;;2.68;46.23
75759;BME280;64371;47.566;19.086;2023-02-04T14:45:45;101302.38;;;2.63;45.53
75759;BME280;64371;47.566;19.086;2023-02-04T14:48:57;101295.78;;;2.54;45.26
75759;BME280;64371;47.566;19.086;2023-02-04T14:52:02;101320.81;;;2.42;45.42
75759;BME280;64371;47.566;19.086;2023-02-04T14:55:05;101318.22;;;2.36;45.79
75759;BME280;64371;47.566;19.086;2023-02-04T14:58:16;101327.44;;;2.25;46.18
75759;BME280;64371;47.566;19.086;2023-02-04T15:01:23;101352.63;;;2.12;46.83
75759;BME280;64371;47.566;19.086;2023-02-04T15:04:37;101358.63;;;2.06;46.64
75759;BME280;64371;47.566;19.086;2023-02-04T15:07:40;101367.41;;;1.98;46.17
75759;BME280;64371;47.566;19.086;2023-02-04T15:10:48;101381.19;;;1.92;46.51
75759;BME280;64371;47.566;19.086;2023-02-04T15:13:55;101383.78;;;1.79;45.52
75759;BME280;64371;47.566;19.086;2023-02-04T15:17:04;101384.97;;;1.76;45.41
75759;BME280;64371;47.566;19.086;2023-02-04T15:20:11;101391.38;;;1.74;45.29
75759;BME280;64371;47.566;19.086;2023-02-04T15:23:14;101400.94;;;1.67;45.48
75759;BME280;64371;47.566;19.086;2023-02-04T15:26:26;101397.91;;;1.63;45.70
75759;BME280;64371;47.566;19.086;2023-02-04T15:29:41;101402.53;;;1.68;44.61
75759;BME280;64371;47.566;19.086;2023-02-04T15:32:48;101420.09;;;1.59;45.09
75759;BME280;64371;47.566;19.086;2023-02-04T15:35:53;101416.25;;;1.55;45.59
75759;BME280;64371;47.566;19.086;2023-02-04T15:38:55;101436.28;;;1.55;45.04
75759;BME280;64371;47.566;19.086;2023-02-04T15:42:06;101436.41;;;1.47;46.04
75759;BME280;64371;47.566;19.086;2023-02-04T15:45:12;101451.06;;;1.54;45.01
75759;BME280;64371;47.566;19.086;2023-02-04T15:48:17;101453.19;;;1.44;45.37
75759;BME280;64371;47.566;19.086;2023-02-04T15:51:24;101442.34;;;1.34;44.53
75759;BME280;64371;47.566;19.086;2023-02-04T15:54:40;101456.72;;;1.30;45.07
75759;BME280;64371;47.566;19.086;2023-02-04T15:57:52;101457.69;;;1.29;45.01
75759;BME280;64371;47.566;19.086;2023-02-04T16:01:05;101480.59;;;1.19;45.73
75759;BME280;64371;47.566;19.086;2023-02-04T16:04:11;101508.06;;;1.07;45.93
75759;BME280;64371;47.566;19.086;2023-02-04T16:07:28;101492.56;;;1.13;46.20
75759;BME280;64371;47.566;19.086;2023-02-04T16:10:45;101496.22;;;0.98;50.10
75759;BME280;64371;47.566;19.086;2023-02-04T16:13:47;101510.75;;;0.92;51.68
75759;BME280;64371;47.566;19.086;2023-02-04T16:16:49;101506.00;;;0.96;49.37
75759;BME280;64371;47.566;19.086;2023-02-04T16:19:59;101498.41;;;0.94;49.62
75759;BME280;64371;47.566;19.086;2023-02-04T16:23:08;101532.81;;;1.03;48.50
75759;BME280;64371;47.566;19.086;2023-02-04T16:26:19;101519.50;;;0.85;50.14
75759;BME280;64371;47.566;19.086;2023-02-04T16:29:21;101538.75;;;0.76;51.91
75759;BME280;64371;47.566;19.086;2023-02-04T16:32:32;101541.66;;;0.66;53.35
75759;BME280;64371;47.566;19.086;2023-02-04T16:35:57;101541.75;;;0.73;51.94
75759;BME280;64371;47.566;19.086;2023-02-04T16:39:11;101543.44;;;0.65;52.55
75759;BME280;64371;47.566;19.086;2023-02-04T16:42:25;101535.28;;;0.68;51.68